Lyuban', Russia
Current Conditions -  °F | °C
As of 7:00 PM on Saturday 25 Oct 2014 (Local Time) from ULLI Reporting Station
Clear Clear  
Wind Chill: 24°   Ceiling: Unl
Heat Index: 32°   Visibility: 6mi
Dew Point: 18°   Wind: 9mph
Humidity: 55%   Direction: 190°S
Pressure: 30.33"   Gusts: NA
Location:  59.35°N, 31.25°E
Report Text: ULLI 251600Z 19004MPS CAVOK 00/M08 Q1027 WS RWY10 6019004510////// NOSIG RMK MOD TURB IAO 0000-0900
Loading
Personal Weather Stations






























Interactive Weather Map
Tropical Storm Tracking
New forecast layout! Learn more

10-Day Weather Forecast

Advertisements
Track Severe Weather on mobile